createdAt,value
2023-05-08T00:02:10.169Z,84.53
2023-05-08T00:04:38.072Z,84.59
2023-05-08T00:07:05.894Z,84.63
2023-05-08T00:09:33.672Z,84.63
2023-05-08T00:12:01.467Z,84.64
2023-05-08T00:14:29.226Z,84.65
2023-05-08T00:16:57.197Z,84.70
2023-05-08T00:19:25.027Z,84.78
2023-05-08T00:21:52.874Z,84.81
2023-05-08T00:24:20.689Z,84.82
2023-05-08T00:26:48.491Z,84.81
2023-05-08T00:29:16.221Z,84.79
2023-05-08T00:31:44.173Z,84.79
2023-05-08T00:34:12.082Z,84.80
2023-05-08T00:36:39.926Z,84.81
2023-05-08T00:39:08.089Z,84.76
2023-05-08T00:41:35.924Z,84.76
2023-05-08T00:44:03.749Z,84.76
2023-05-08T00:46:32.467Z,84.78
2023-05-08T00:49:00.880Z,84.82
2023-05-08T00:51:29.428Z,84.83
2023-05-08T00:53:57.765Z,84.84
2023-05-08T00:56:26.912Z,84.84
2023-05-08T00:58:55.285Z,84.88
2023-05-08T01:01:23.775Z,84.91
2023-05-08T01:03:51.882Z,84.92
2023-05-08T01:06:19.762Z,84.94
2023-05-08T01:08:47.483Z,85.09
2023-05-08T01:11:28.203Z,85.19
2023-05-08T01:14:02.784Z,85.23
2023-05-08T01:17:06.939Z,85.30
2023-05-08T01:19:57.639Z,85.34
2023-05-08T01:23:02.795Z,85.41
2023-05-08T01:26:08.934Z,85.49
2023-05-08T01:28:58.760Z,85.49
2023-05-08T01:31:48.030Z,85.51
2023-05-08T01:34:23.748Z,85.53
2023-05-08T01:37:11.081Z,85.57
2023-05-08T01:39:48.122Z,85.61
2023-05-08T01:42:39.157Z,85.64
2023-05-08T01:45:31.139Z,85.63
2023-05-08T01:48:11.303Z,85.61
2023-05-08T01:50:54.030Z,85.60
2023-05-08T01:53:25.897Z,85.61
2023-05-08T01:55:58.005Z,85.59
2023-05-08T01:58:28.266Z,85.57
2023-05-08T02:00:57.562Z,85.57
2023-05-08T02:03:26.362Z,85.59
2023-05-08T02:05:58.839Z,85.56
2023-05-08T02:08:28.973Z,85.50
2023-05-08T02:10:58.969Z,85.47
2023-05-08T02:13:28.772Z,85.49
2023-05-08T02:15:58.187Z,85.53
2023-05-08T02:18:28.529Z,85.54
2023-05-08T02:20:57.378Z,85.62
2023-05-08T02:23:26.843Z,85.67
2023-05-08T02:25:55.990Z,85.70
2023-05-08T02:28:25.134Z,85.70
2023-05-08T02:30:53.751Z,85.68
2023-05-08T02:33:22.065Z,85.67
2023-05-08T02:35:52.282Z,85.65
2023-05-08T02:38:21.634Z,85.64
2023-05-08T02:41:00.968Z,85.61
2023-05-08T02:43:29.266Z,85.59
2023-05-08T02:45:57.169Z,85.57
2023-05-08T02:48:31.225Z,85.55
2023-05-08T02:51:21.624Z,85.56
2023-05-08T02:54:04.806Z,85.56
2023-05-08T02:56:58.864Z,85.61
2023-05-08T02:59:37.352Z,85.63
2023-05-08T03:02:22.217Z,85.62
2023-05-08T03:04:55.338Z,85.63
2023-05-08T03:07:26.261Z,85.65
2023-05-08T03:10:03.121Z,85.72
2023-05-08T03:12:34.706Z,85.83
2023-05-08T03:15:14.581Z,85.91
2023-05-08T03:17:46.287Z,85.96
2023-05-08T03:20:18.266Z,86.02
2023-05-08T03:22:48.346Z,86.07
2023-05-08T03:25:19.582Z,86.14
2023-05-08T03:27:49.172Z,86.22
2023-05-08T03:30:18.528Z,86.32
2023-05-08T03:32:57.134Z,86.42
2023-05-08T03:35:27.178Z,86.54
2023-05-08T03:37:55.485Z,86.67
2023-05-08T03:40:23.693Z,86.81
2023-05-08T03:42:53.129Z,86.89
2023-05-08T03:45:21.001Z,86.89
2023-05-08T03:47:49.408Z,86.98
2023-05-08T03:50:17.660Z,87.11
2023-05-08T03:52:46.114Z,87.29
2023-05-08T03:55:14.132Z,87.46
2023-05-08T03:57:50.779Z,87.58
2023-05-08T04:00:41.816Z,87.74
2023-05-08T04:03:20.892Z,87.90
2023-05-08T04:06:16.050Z,88.06
2023-05-08T04:09:00.475Z,88.25
2023-05-08T04:11:54.660Z,88.32
2023-05-08T04:14:26.268Z,88.48
2023-05-08T04:17:00.614Z,88.62
2023-05-08T04:19:33.401Z,88.79
2023-05-08T04:22:06.709Z,88.94
2023-05-08T04:24:40.715Z,89.06
2023-05-08T04:27:10.899Z,89.03
2023-05-08T04:29:39.451Z,89.03
2023-05-08T04:32:08.494Z,89.15
2023-05-08T04:34:36.850Z,89.24
2023-05-08T04:37:08.022Z,89.21
2023-05-08T04:39:35.903Z,89.19
2023-05-08T04:42:04.917Z,89.05
2023-05-08T04:44:33.959Z,88.89
2023-05-08T04:47:01.981Z,88.94
2023-05-08T04:49:29.767Z,89.20
2023-05-08T04:51:57.801Z,89.42
2023-05-08T04:54:25.688Z,89.51
2023-05-08T04:56:53.578Z,89.45
2023-05-08T04:59:21.552Z,89.05
2023-05-08T05:01:49.508Z,87.24
2023-05-08T05:04:17.736Z,86.75
2023-05-08T05:06:45.696Z,85.57
2023-05-08T05:09:13.546Z,85.92
2023-05-08T05:11:41.909Z,85.57
2023-05-08T05:14:09.680Z,84.89
2023-05-08T05:16:38.203Z,84.73
2023-05-08T05:19:06.424Z,84.98
2023-05-08T05:21:34.763Z,84.97
2023-05-08T05:24:03.501Z,84.32
2023-05-08T05:26:31.820Z,84.32
2023-05-08T05:29:00.009Z,84.46
2023-05-08T05:31:29.130Z,84.22
2023-05-08T05:33:57.482Z,83.88
2023-05-08T05:36:26.183Z,83.74
2023-05-08T05:38:54.101Z,83.49
2023-05-08T05:41:22.578Z,83.08
2023-05-08T05:43:50.382Z,82.67
2023-05-08T05:46:18.804Z,82.32
2023-05-08T05:48:47.347Z,81.73
2023-05-08T05:51:15.734Z,81.01
2023-05-08T05:53:43.939Z,80.48
2023-05-08T05:56:11.960Z,79.91
2023-05-08T05:58:40.993Z,79.28
2023-05-08T06:01:09.747Z,78.98
2023-05-08T06:03:37.978Z,77.94
2023-05-08T06:06:06.154Z,77.45
2023-05-08T06:08:35.381Z,77.08
2023-05-08T06:11:03.877Z,76.93
2023-05-08T06:13:32.022Z,76.72
2023-05-08T06:16:00.179Z,76.16
2023-05-08T06:18:28.480Z,75.82
2023-05-08T06:21:00.151Z,75.48
2023-05-08T06:23:28.248Z,74.84
2023-05-08T06:25:56.065Z,74.07
2023-05-08T06:28:26.213Z,73.45
2023-05-08T06:30:54.383Z,72.26
2023-05-08T06:33:23.562Z,72.37
2023-05-08T06:35:52.702Z,72.65
2023-05-08T06:38:20.673Z,71.35
2023-05-08T06:40:50.169Z,70.78
2023-05-08T06:43:17.803Z,70.60
2023-05-08T06:45:47.008Z,70.87
2023-05-08T06:48:14.870Z,69.47
2023-05-08T06:50:43.393Z,68.39
2023-05-08T06:53:12.714Z,67.58
2023-05-08T06:55:43.743Z,67.61
2023-05-08T06:58:11.527Z,67.01
2023-05-08T07:00:39.382Z,66.57
2023-05-08T07:03:07.467Z,66.22
2023-05-08T07:05:35.580Z,65.39
2023-05-08T07:08:03.429Z,65.11
2023-05-08T07:10:31.243Z,63.84
2023-05-08T07:12:59.072Z,63.94
2023-05-08T07:15:27.273Z,63.08
2023-05-08T07:17:55.252Z,62.67
2023-05-08T07:20:24.778Z,62.65
2023-05-08T07:22:54.723Z,62.59
2023-05-08T07:25:23.337Z,62.05
2023-05-08T07:27:51.076Z,62.34
2023-05-08T07:30:19.005Z,62.05
2023-05-08T07:32:46.941Z,62.16
2023-05-08T07:35:15.894Z,61.98
2023-05-08T07:37:44.614Z,60.33
2023-05-08T07:40:12.477Z,60.78
2023-05-08T07:42:42.101Z,60.65
2023-05-08T07:45:12.393Z,59.75
2023-05-08T07:47:49.534Z,59.49
2023-05-08T07:50:17.718Z,59.56
2023-05-08T07:52:46.551Z,58.39
2023-05-08T07:55:15.862Z,57.52
2023-05-08T07:57:44.395Z,56.85
2023-05-08T08:00:15.065Z,57.15
2023-05-08T08:02:44.303Z,55.50
2023-05-08T08:05:12.957Z,54.55
2023-05-08T08:07:41.056Z,54.04
2023-05-08T08:10:09.236Z,53.95
2023-05-08T08:12:37.432Z,54.25
2023-05-08T08:15:05.999Z,55.02
2023-05-08T08:17:33.911Z,53.85
2023-05-08T08:20:01.794Z,53.09
2023-05-08T08:22:29.610Z,52.24
2023-05-08T08:24:57.472Z,51.74
2023-05-08T08:27:25.258Z,51.44
2023-05-08T08:30:04.487Z,50.74
2023-05-08T08:32:36.328Z,51.51
2023-05-08T08:35:04.583Z,52.52
2023-05-08T08:37:32.476Z,52.91
2023-05-08T08:40:00.522Z,52.69
2023-05-08T08:42:29.103Z,53.11
2023-05-08T08:44:56.994Z,52.89
2023-05-08T08:47:37.045Z,53.16
2023-05-08T08:50:05.703Z,51.38
2023-05-08T08:52:47.551Z,51.50
2023-05-08T08:55:18.053Z,50.92
2023-05-08T08:57:51.361Z,49.47
2023-05-08T09:00:20.502Z,49.79
2023-05-08T09:02:48.829Z,48.93
2023-05-08T09:05:17.924Z,48.54
2023-05-08T09:07:45.944Z,48.98
2023-05-08T09:10:15.802Z,47.63
2023-05-08T09:12:45.133Z,47.31
2023-05-08T09:15:13.192Z,47.76
2023-05-08T09:17:41.345Z,46.65
2023-05-08T09:20:09.683Z,44.36
2023-05-08T09:22:37.923Z,43.97
2023-05-08T09:25:07.168Z,43.19
2023-05-08T09:27:36.413Z,43.74
2023-05-08T09:30:12.342Z,43.86
2023-05-08T09:32:42.817Z,43.64
2023-05-08T09:35:12.540Z,43.35
2023-05-08T09:37:42.995Z,44.30
2023-05-08T09:40:21.999Z,43.57
2023-05-08T09:42:51.019Z,41.44
2023-05-08T09:45:31.590Z,39.14
2023-05-08T09:47:59.825Z,37.70
2023-05-08T09:50:27.852Z,36.79
2023-05-08T09:52:55.940Z,35.98
2023-05-08T09:55:24.449Z,36.68
2023-05-08T09:57:54.747Z,36.40
2023-05-08T10:00:23.655Z,35.50
2023-05-08T10:03:04.136Z,34.10
2023-05-08T10:05:35.569Z,34.92
2023-05-08T10:08:20.032Z,35.82
2023-05-08T10:10:47.961Z,36.56
2023-05-08T10:13:16.127Z,36.43
2023-05-08T10:15:44.965Z,36.81
2023-05-08T10:18:16.309Z,37.95
2023-05-08T10:20:48.787Z,38.76
2023-05-08T10:23:18.759Z,38.91
2023-05-08T10:25:55.912Z,38.41
2023-05-08T10:28:33.486Z,38.37
2023-05-08T10:31:05.341Z,37.95
2023-05-08T10:33:35.868Z,37.53
2023-05-08T10:36:06.017Z,37.87
2023-05-08T10:38:34.785Z,38.02
2023-05-08T10:41:02.853Z,38.22
2023-05-08T10:43:33.854Z,38.69
2023-05-08T10:46:09.773Z,38.75
2023-05-08T10:48:51.822Z,38.83
2023-05-08T10:51:42.014Z,38.47
2023-05-08T10:54:34.388Z,37.86
2023-05-08T10:57:12.558Z,37.92
2023-05-08T10:59:45.270Z,37.60
2023-05-08T11:02:15.819Z,38.09
2023-05-08T11:04:44.059Z,38.21
2023-05-08T11:07:11.857Z,38.41
2023-05-08T11:09:43.076Z,37.70
2023-05-08T11:12:23.010Z,37.28
2023-05-08T11:15:00.360Z,37.72
2023-05-08T11:17:28.719Z,37.78
2023-05-08T11:19:57.593Z,37.73
2023-05-08T11:22:29.409Z,38.11
2023-05-08T11:25:01.263Z,38.14
2023-05-08T11:27:39.461Z,38.30
2023-05-08T11:30:39.493Z,38.13
2023-05-08T11:33:07.235Z,38.53
2023-05-08T11:35:44.324Z,38.43
2023-05-08T11:38:19.225Z,37.33
2023-05-08T11:40:48.587Z,37.22
2023-05-08T11:43:36.593Z,36.85
2023-05-08T11:46:16.600Z,37.59
2023-05-08T11:48:45.069Z,37.70
2023-05-08T11:51:13.808Z,37.69
2023-05-08T11:53:43.675Z,37.20
2023-05-08T11:56:11.533Z,37.45
2023-05-08T11:58:39.300Z,36.80
2023-05-08T12:01:07.621Z,35.25
2023-05-08T12:03:36.397Z,34.62
2023-05-08T12:06:04.370Z,35.11
2023-05-08T12:08:32.103Z,35.70
2023-05-08T12:11:00.153Z,35.50
2023-05-08T12:13:29.505Z,36.05
2023-05-08T12:15:59.749Z,36.78
2023-05-08T12:18:30.690Z,37.14
2023-05-08T12:21:00.631Z,37.43
2023-05-08T12:23:29.776Z,36.76
2023-05-08T12:26:01.725Z,36.74
2023-05-08T12:28:32.185Z,36.11
2023-05-08T12:31:02.082Z,35.50
2023-05-08T12:33:31.214Z,35.61
2023-05-08T12:35:59.213Z,35.62
2023-05-08T12:38:27.881Z,35.22
2023-05-08T12:40:56.157Z,35.59
2023-05-08T12:43:36.585Z,36.07
2023-05-08T12:46:05.028Z,35.52
2023-05-08T12:48:32.911Z,35.37
2023-05-08T12:51:05.149Z,34.74
2023-05-08T12:53:33.586Z,35.62
2023-05-08T12:56:04.255Z,36.25
2023-05-08T12:58:34.350Z,35.74
2023-05-08T13:01:12.810Z,35.55
2023-05-08T13:03:41.563Z,34.87
2023-05-08T13:06:20.996Z,35.15
2023-05-08T13:08:57.263Z,35.27
2023-05-08T13:11:33.087Z,36.06
2023-05-08T13:14:01.037Z,35.60
2023-05-08T13:16:28.951Z,35.57
2023-05-08T13:18:56.691Z,35.47
2023-05-08T13:21:27.070Z,34.96
2023-05-08T13:23:56.657Z,34.84
2023-05-08T13:26:25.699Z,35.19
2023-05-08T13:28:56.165Z,34.96
2023-05-08T13:31:24.389Z,34.78
2023-05-08T13:33:52.142Z,34.63
2023-05-08T13:36:20.959Z,34.64
2023-05-08T13:38:48.923Z,34.06
2023-05-08T13:41:16.719Z,34.24
2023-05-08T13:43:45.476Z,33.48
2023-05-08T13:46:13.508Z,33.82
2023-05-08T13:48:41.261Z,33.64
2023-05-08T13:51:08.922Z,32.41
2023-05-08T13:53:37.971Z,31.95
2023-05-08T13:56:06.465Z,32.54
2023-05-08T13:58:34.230Z,33.16
2023-05-08T14:01:13.888Z,32.95
2023-05-08T14:03:49.538Z,33.11
2023-05-08T14:06:17.215Z,33.62
2023-05-08T14:08:47.265Z,33.78
2023-05-08T14:11:17.343Z,33.49
2023-05-08T14:13:45.081Z,33.33
2023-05-08T14:16:14.441Z,33.29
2023-05-08T14:18:42.277Z,34.30
2023-05-08T14:21:09.921Z,34.38
2023-05-08T14:23:39.208Z,34.17
2023-05-08T14:26:06.928Z,34.83
2023-05-08T14:28:34.600Z,34.97
2023-05-08T14:31:02.493Z,34.18
2023-05-08T14:33:30.249Z,34.33
2023-05-08T14:35:58.020Z,34.58
2023-05-08T14:38:25.673Z,34.24
2023-05-08T14:40:56.327Z,33.85
2023-05-08T14:43:24.356Z,34.38
2023-05-08T14:45:52.049Z,34.80
2023-05-08T14:48:19.715Z,34.54
2023-05-08T14:50:47.453Z,34.10
2023-05-08T14:53:15.346Z,33.69
2023-05-08T14:55:43.655Z,33.54
2023-05-08T14:58:11.735Z,33.51
2023-05-08T15:00:39.708Z,33.45
2023-05-08T15:03:07.588Z,33.77
2023-05-08T15:05:36.873Z,33.92
2023-05-08T15:08:05.661Z,34.29
2023-05-08T15:10:33.316Z,34.74
2023-05-08T15:13:01.245Z,34.25
2023-05-08T15:15:28.917Z,34.11
2023-05-08T15:17:56.681Z,34.44
2023-05-08T15:20:24.538Z,34.24
2023-05-08T15:22:52.311Z,34.46
2023-05-08T15:25:20.233Z,34.49
2023-05-08T15:27:52.618Z,34.01
2023-05-08T15:30:21.102Z,34.27
2023-05-08T15:32:48.941Z,34.49
2023-05-08T15:35:17.035Z,34.14
2023-05-08T15:37:44.688Z,34.36
2023-05-08T15:40:12.948Z,33.99
2023-05-08T15:42:40.692Z,34.47
2023-05-08T15:45:10.279Z,34.26
2023-05-08T15:47:38.029Z,34.12
2023-05-08T15:50:06.384Z,33.86
2023-05-08T15:52:34.165Z,34.18
2023-05-08T15:55:01.909Z,34.05
2023-05-08T15:57:29.600Z,33.96
2023-05-08T15:59:57.599Z,33.78
2023-05-08T16:02:25.595Z,34.15
2023-05-08T16:04:53.336Z,34.28
2023-05-08T16:07:21.077Z,33.78
2023-05-08T16:09:48.723Z,33.89
2023-05-08T16:12:17.271Z,34.39
2023-05-08T16:14:45.253Z,34.86
2023-05-08T16:17:13.145Z,35.15
2023-05-08T16:19:40.896Z,34.90
2023-05-08T16:22:08.556Z,35.03
2023-05-08T16:24:36.179Z,35.27
2023-05-08T16:27:04.009Z,35.10
2023-05-08T16:29:31.657Z,35.46
2023-05-08T16:31:59.475Z,35.47
2023-05-08T16:34:27.360Z,35.78
2023-05-08T16:36:55.161Z,35.44
2023-05-08T16:39:23.070Z,35.70
2023-05-08T16:41:50.751Z,35.82
2023-05-08T16:44:18.483Z,36.12
2023-05-08T16:46:46.203Z,36.34
2023-05-08T16:49:14.188Z,36.34
2023-05-08T16:51:42.609Z,36.32
2023-05-08T16:54:10.303Z,36.87
2023-05-08T16:56:37.930Z,36.57
2023-05-08T16:59:08.556Z,36.79
2023-05-08T17:01:37.397Z,36.78
2023-05-08T17:04:05.368Z,36.90
2023-05-08T17:06:33.057Z,36.66
2023-05-08T17:09:00.857Z,36.90
2023-05-08T17:11:28.666Z,36.73
2023-05-08T17:13:56.366Z,36.89
2023-05-08T17:16:24.108Z,36.86
2023-05-08T17:18:51.805Z,37.33
2023-05-08T17:21:20.710Z,37.57
2023-05-08T17:23:49.181Z,37.89
2023-05-08T17:26:16.896Z,37.96
2023-05-08T17:28:44.659Z,38.35
2023-05-08T17:31:13.212Z,38.00
2023-05-08T17:33:40.909Z,38.27
2023-05-08T17:36:09.156Z,38.76
2023-05-08T17:38:43.276Z,39.12
2023-05-08T17:41:11.917Z,39.11
2023-05-08T17:43:40.029Z,39.25
2023-05-08T17:46:08.191Z,39.43
2023-05-08T17:48:36.254Z,39.58
2023-05-08T17:51:04.402Z,39.69
2023-05-08T17:53:32.778Z,40.02
2023-05-08T17:56:00.600Z,40.66
2023-05-08T17:58:28.601Z,41.31
2023-05-08T18:00:57.139Z,41.96
2023-05-08T18:03:25.008Z,42.86
2023-05-08T18:05:52.922Z,44.00
2023-05-08T18:08:20.768Z,44.81
2023-05-08T18:10:48.637Z,45.32
2023-05-08T18:13:16.342Z,45.97
2023-05-08T18:15:44.449Z,46.67
2023-05-08T18:18:12.165Z,47.12
2023-05-08T18:20:40.069Z,47.72
2023-05-08T18:23:08.639Z,48.41
2023-05-08T18:25:37.087Z,49.21
2023-05-08T18:28:05.025Z,49.88
2023-05-08T18:30:36.292Z,50.57
2023-05-08T18:33:04.289Z,50.81
2023-05-08T18:35:32.045Z,51.45
2023-05-08T18:37:59.735Z,51.89
2023-05-08T18:40:27.588Z,52.48
2023-05-08T18:42:56.025Z,53.18
2023-05-08T18:45:24.907Z,53.71
2023-05-08T18:47:54.228Z,54.44
2023-05-08T18:50:22.146Z,55.01
2023-05-08T18:52:51.084Z,55.42
2023-05-08T18:55:20.135Z,55.96
2023-05-08T18:57:47.883Z,56.60
2023-05-08T19:00:16.563Z,57.15
2023-05-08T19:02:46.756Z,57.59
2023-05-08T19:05:14.484Z,58.03
2023-05-08T19:07:42.759Z,58.48
2023-05-08T19:10:11.480Z,58.82
2023-05-08T19:12:39.727Z,59.26
2023-05-08T19:15:09.418Z,59.57
2023-05-08T19:17:37.984Z,59.97
2023-05-08T19:20:06.441Z,60.33
2023-05-08T19:22:35.845Z,60.65
2023-05-08T19:25:04.533Z,61.14
2023-05-08T19:27:32.275Z,61.45
2023-05-08T19:30:00.131Z,61.87
2023-05-08T19:32:28.741Z,62.17
2023-05-08T19:34:57.480Z,62.58
2023-05-08T19:37:25.334Z,62.94
2023-05-08T19:39:53.202Z,63.28
2023-05-08T19:42:21.482Z,63.70
2023-05-08T19:44:49.478Z,64.10
2023-05-08T19:47:17.467Z,64.57
2023-05-08T19:49:45.277Z,64.97
2023-05-08T19:52:12.998Z,65.33
2023-05-08T19:54:40.834Z,65.65
2023-05-08T19:57:08.603Z,66.00
2023-05-08T19:59:36.799Z,66.33
2023-05-08T20:02:04.547Z,66.58
2023-05-08T20:04:36.969Z,66.92
2023-05-08T20:07:16.068Z,67.17
2023-05-08T20:09:46.204Z,67.51
2023-05-08T20:12:14.101Z,67.94
2023-05-08T20:14:42.415Z,68.36
2023-05-08T20:17:10.322Z,68.71
2023-05-08T20:19:38.203Z,69.06
2023-05-08T20:22:06.237Z,69.38
2023-05-08T20:24:33.989Z,69.66
2023-05-08T20:27:02.579Z,69.97
2023-05-08T20:29:30.277Z,70.30
2023-05-08T20:31:58.133Z,70.55
2023-05-08T20:34:25.804Z,70.83
2023-05-08T20:36:53.600Z,71.13
2023-05-08T20:39:21.495Z,71.47
2023-05-08T20:41:49.156Z,71.78
2023-05-08T20:44:19.125Z,72.05
2023-05-08T20:46:46.794Z,72.25
2023-05-08T20:49:14.598Z,72.57
2023-05-08T20:51:42.275Z,72.87
2023-05-08T20:54:10.163Z,73.14
2023-05-08T20:56:37.861Z,73.35
2023-05-08T20:59:05.644Z,73.54
2023-05-08T21:01:33.434Z,73.69
2023-05-08T21:04:01.368Z,73.84
2023-05-08T21:06:29.629Z,73.97
2023-05-08T21:08:57.809Z,74.10
2023-05-08T21:11:25.893Z,74.20
2023-05-08T21:13:53.599Z,74.38
2023-05-08T21:16:22.192Z,74.51
2023-05-08T21:18:51.076Z,74.62
2023-05-08T21:21:22.893Z,74.11
2023-05-08T21:23:50.930Z,74.52
2023-05-08T21:26:20.009Z,74.81
2023-05-08T21:28:47.904Z,75.02
2023-05-08T21:31:15.614Z,75.15
2023-05-08T21:33:43.317Z,75.28
2023-05-08T21:36:10.938Z,75.50
2023-05-08T21:38:38.954Z,75.67
2023-05-08T21:41:08.333Z,75.82
2023-05-08T21:43:36.365Z,75.98
2023-05-08T21:46:05.769Z,76.17
2023-05-08T21:48:34.128Z,76.35
2023-05-08T21:51:02.403Z,76.51
2023-05-08T21:53:30.219Z,76.66
2023-05-08T21:55:59.184Z,76.75
2023-05-08T21:58:26.918Z,76.86
2023-05-08T22:00:55.493Z,76.96
2023-05-08T22:03:24.647Z,77.06
2023-05-08T22:05:52.499Z,77.18
2023-05-08T22:08:20.198Z,77.27
2023-05-08T22:10:47.970Z,77.31
2023-05-08T22:13:15.702Z,77.34
2023-05-08T22:15:43.442Z,77.35
2023-05-08T22:18:11.327Z,77.39
2023-05-08T22:20:39.089Z,77.50
2023-05-08T22:23:06.799Z,77.50
2023-05-08T22:25:34.590Z,77.69
2023-05-08T22:28:02.285Z,77.87
2023-05-08T22:30:30.038Z,78.01
2023-05-08T22:32:58.151Z,78.10
2023-05-08T22:35:27.733Z,78.22
2023-05-08T22:37:57.268Z,78.34
2023-05-08T22:40:25.726Z,78.48
2023-05-08T22:42:55.806Z,78.62
2023-05-08T22:45:23.718Z,78.68
2023-05-08T22:47:51.563Z,78.75
2023-05-08T22:50:19.482Z,78.88
2023-05-08T22:52:47.220Z,78.98
2023-05-08T22:55:15.868Z,79.11
2023-05-08T22:57:44.292Z,79.16
2023-05-08T23:00:12.567Z,79.13
2023-05-08T23:02:40.247Z,79.20
2023-05-08T23:05:08.497Z,79.26
2023-05-08T23:07:36.188Z,79.31
2023-05-08T23:10:03.993Z,79.38
2023-05-08T23:12:31.967Z,79.43
2023-05-08T23:14:59.611Z,79.47
2023-05-08T23:17:27.389Z,79.53
2023-05-08T23:19:55.094Z,79.65
2023-05-08T23:22:22.745Z,79.77
2023-05-08T23:24:50.488Z,79.88
2023-05-08T23:27:18.119Z,79.94
2023-05-08T23:29:45.895Z,79.93
2023-05-08T23:32:14.618Z,79.96
2023-05-08T23:34:43.139Z,80.13
2023-05-08T23:37:10.867Z,80.30
2023-05-08T23:39:41.510Z,80.40
2023-05-08T23:42:09.384Z,80.48
2023-05-08T23:44:37.312Z,80.52
2023-05-08T23:47:05.116Z,80.55
2023-05-08T23:49:32.907Z,80.72
2023-05-08T23:52:01.293Z,80.87
2023-05-08T23:54:28.950Z,80.97
2023-05-08T23:56:56.668Z,81.00
2023-05-08T23:59:24.397Z,81.09
